createdAt,value
2023-05-22T00:01:53.070Z,16.70
2023-05-22T00:04:21.413Z,16.70
2023-05-22T00:06:49.415Z,16.70
2023-05-22T00:09:16.681Z,16.60
2023-05-22T00:11:45.002Z,16.60
2023-05-22T00:14:13.741Z,16.60
2023-05-22T00:16:41.540Z,16.50
2023-05-22T00:19:19.096Z,16.50
2023-05-22T00:21:47.347Z,16.50
2023-05-22T00:24:14.230Z,16.50
2023-05-22T00:26:41.204Z,16.50
2023-05-22T00:29:08.133Z,16.50
2023-05-22T00:31:35.189Z,16.50
2023-05-22T00:34:02.499Z,16.50
2023-05-22T00:36:30.682Z,16.50
2023-05-22T00:38:58.634Z,16.50
2023-05-22T00:41:26.178Z,16.60
2023-05-22T00:43:53.300Z,16.60
2023-05-22T00:46:38.830Z,16.60
2023-05-22T00:49:06.842Z,16.60
2023-05-22T00:51:33.967Z,16.60
2023-05-22T00:54:01.042Z,16.60
2023-05-22T00:56:29.375Z,16.60
2023-05-22T00:58:56.681Z,16.60
2023-05-22T01:01:26.427Z,16.60
2023-05-22T01:03:54.070Z,16.60
2023-05-22T01:06:24.530Z,16.60
2023-05-22T01:08:51.489Z,16.50
2023-05-22T01:11:23.740Z,16.50
2023-05-22T01:14:14.960Z,16.50
2023-05-22T01:17:14.506Z,16.40
2023-05-22T01:20:14.487Z,16.40
2023-05-22T01:23:19.035Z,16.40
2023-05-22T01:26:14.136Z,16.40
2023-05-22T01:29:28.914Z,16.40
2023-05-22T01:31:59.289Z,16.30
2023-05-22T01:34:28.048Z,16.30
2023-05-22T01:36:56.508Z,16.30
2023-05-22T01:39:24.818Z,16.20
2023-05-22T01:41:52.115Z,16.20
2023-05-22T01:44:19.093Z,16.20
2023-05-22T01:46:46.371Z,16.10
2023-05-22T01:49:13.361Z,16.00
2023-05-22T01:55:34.130Z,15.90
2023-05-22T01:58:14.797Z,15.90
2023-05-22T02:00:46.391Z,15.80
2023-05-22T02:03:20.799Z,15.90
2023-05-22T02:05:51.915Z,15.80
2023-05-22T02:08:21.839Z,15.80
2023-05-22T02:10:55.093Z,15.80
2023-05-22T02:13:22.806Z,15.90
2023-05-22T02:15:50.699Z,15.90
2023-05-22T02:18:17.729Z,15.90
2023-05-22T02:20:46.951Z,15.90
2023-05-22T02:23:14.202Z,15.90
2023-05-22T02:25:41.335Z,15.90
2023-05-22T02:28:08.368Z,15.90
2023-05-22T02:30:35.404Z,15.90
2023-05-22T02:33:06.117Z,15.90
2023-05-22T02:35:33.110Z,15.90
2023-05-22T02:38:00.078Z,15.90
2023-05-22T02:40:27.231Z,15.90
2023-05-22T02:42:54.170Z,15.90
2023-05-22T02:45:21.521Z,15.90
2023-05-22T02:47:48.476Z,15.90
2023-05-22T02:50:15.614Z,15.90
2023-05-22T02:52:42.813Z,15.90
2023-05-22T02:55:10.527Z,15.90
2023-05-22T02:57:37.744Z,15.90
2023-05-22T03:00:11.758Z,15.90
2023-05-22T03:02:39.305Z,15.80
2023-05-22T03:05:07.481Z,15.80
2023-05-22T03:07:35.064Z,15.80
2023-05-22T03:10:02.096Z,15.80
2023-05-22T03:12:29.112Z,15.80
2023-05-22T03:14:56.141Z,15.80
2023-05-22T03:17:23.386Z,15.80
2023-05-22T03:19:52.472Z,15.80
2023-05-22T03:22:19.419Z,15.70
2023-05-22T03:24:48.120Z,15.70
2023-05-22T03:27:19.815Z,15.70
2023-05-22T03:29:46.774Z,15.60
2023-05-22T03:32:13.852Z,15.60
2023-05-22T03:34:41.639Z,15.60
2023-05-22T03:37:09.336Z,15.60
2023-05-22T03:39:36.974Z,15.60
2023-05-22T03:42:04.225Z,15.60
2023-05-22T03:44:31.330Z,15.50
2023-05-22T03:46:58.266Z,15.50
2023-05-22T03:49:25.401Z,15.40
2023-05-22T03:51:52.388Z,15.50
2023-05-22T03:54:19.576Z,15.40
2023-05-22T03:56:46.696Z,15.30
2023-05-22T03:59:13.667Z,15.30
2023-05-22T04:01:40.754Z,15.20
2023-05-22T04:04:12.290Z,15.20
2023-05-22T04:06:43.487Z,15.10
2023-05-22T04:09:14.488Z,15.10
2023-05-22T04:11:42.341Z,15.10
2023-05-22T04:14:09.955Z,15.10
2023-05-22T04:16:36.909Z,15.10
2023-05-22T04:19:05.349Z,15.00
2023-05-22T04:21:34.493Z,15.00
2023-05-22T04:24:02.040Z,15.00
2023-05-22T04:26:33.260Z,15.00
2023-05-22T04:29:00.434Z,15.00
2023-05-22T04:31:27.515Z,15.00
2023-05-22T04:33:56.079Z,15.10
2023-05-22T04:36:26.169Z,15.10
2023-05-22T04:38:54.559Z,15.20
2023-05-22T04:41:26.878Z,15.30
2023-05-22T04:43:54.304Z,15.30
2023-05-22T04:46:21.556Z,15.40
2023-05-22T04:48:48.885Z,15.40
2023-05-22T04:51:16.119Z,15.50
2023-05-22T04:53:43.049Z,15.60
2023-05-22T04:56:11.761Z,15.60
2023-05-22T04:58:40.494Z,15.60
2023-05-22T05:01:07.473Z,15.60
2023-05-22T05:03:34.976Z,15.70
2023-05-22T05:06:01.873Z,15.70
2023-05-22T05:08:29.813Z,15.80
2023-05-22T05:10:56.940Z,15.90
2023-05-22T05:13:24.155Z,16.00
2023-05-22T05:15:51.967Z,16.00
2023-05-22T05:18:20.507Z,16.00
2023-05-22T05:20:47.810Z,16.10
2023-05-22T05:23:15.522Z,16.20
2023-05-22T05:25:42.755Z,16.20
2023-05-22T05:28:11.795Z,16.30
2023-05-22T05:30:45.048Z,16.40
2023-05-22T05:33:13.284Z,16.60
2023-05-22T05:35:42.682Z,16.70
2023-05-22T05:38:10.162Z,16.90
2023-05-22T05:40:37.506Z,17.00
2023-05-22T05:43:05.861Z,17.30
2023-05-22T05:45:33.654Z,17.50
2023-05-22T05:48:00.719Z,17.60
2023-05-22T05:50:27.762Z,17.80
2023-05-22T05:52:54.674Z,18.10
2023-05-22T05:55:21.996Z,18.40
2023-05-22T05:57:49.108Z,18.70
2023-05-22T06:00:17.429Z,19.00
2023-05-22T06:02:48.241Z,19.30
2023-05-22T06:05:19.332Z,19.50
2023-05-22T06:07:46.586Z,19.80
2023-05-22T06:10:25.799Z,20.00
2023-05-22T06:12:54.050Z,20.30
2023-05-22T06:15:21.328Z,20.50
2023-05-22T06:17:48.274Z,20.70
2023-05-22T06:20:15.809Z,21.00
2023-05-22T06:22:42.886Z,21.20
2023-05-22T06:25:10.154Z,21.50
2023-05-22T06:27:37.315Z,21.70
2023-05-22T06:30:04.966Z,22.00
2023-05-22T06:32:32.515Z,22.30
2023-05-22T06:34:59.816Z,22.50
2023-05-22T06:37:26.828Z,22.90
2023-05-22T06:39:53.929Z,23.10
2023-05-22T06:42:20.777Z,23.50
2023-05-22T06:44:47.696Z,23.70
2023-05-22T06:47:14.871Z,24.00
2023-05-22T06:49:43.049Z,24.30
2023-05-22T06:52:10.611Z,24.60
2023-05-22T06:54:37.659Z,24.90
2023-05-22T06:57:04.848Z,25.10
2023-05-22T06:59:33.361Z,25.30
2023-05-22T07:02:00.374Z,25.50
2023-05-22T07:04:27.279Z,25.70
2023-05-22T07:06:54.227Z,25.90
2023-05-22T07:09:22.112Z,26.00
2023-05-22T07:11:49.628Z,26.20
2023-05-22T07:14:16.650Z,26.50
2023-05-22T07:16:44.160Z,26.80
2023-05-22T07:19:12.182Z,26.90
2023-05-22T07:21:41.693Z,27.10
2023-05-22T07:24:08.668Z,27.30
2023-05-22T07:26:36.993Z,27.40
2023-05-22T07:29:04.848Z,27.70
2023-05-22T07:31:34.056Z,28.00
2023-05-22T07:34:01.224Z,28.20
2023-05-22T07:36:28.440Z,28.30
2023-05-22T07:38:55.514Z,28.50
2023-05-22T07:41:22.881Z,28.80
2023-05-22T07:43:50.240Z,29.30
2023-05-22T07:46:24.490Z,29.80
2023-05-22T07:49:00.945Z,30.10
2023-05-22T07:51:28.506Z,30.30
2023-05-22T07:53:55.661Z,30.50
2023-05-22T07:56:22.722Z,30.50
2023-05-22T07:58:50.396Z,30.70
2023-05-22T08:01:17.949Z,30.80
2023-05-22T08:03:45.240Z,30.60
2023-05-22T08:06:12.864Z,30.50
2023-05-22T08:08:40.205Z,30.50
2023-05-22T08:11:07.747Z,30.00
2023-05-22T08:13:34.937Z,29.80
2023-05-22T08:16:02.025Z,30.20
2023-05-22T08:18:29.945Z,30.70
2023-05-22T08:20:57.665Z,31.30
2023-05-22T08:23:27.001Z,31.90
2023-05-22T08:25:54.430Z,32.50
2023-05-22T08:28:21.503Z,32.80
2023-05-22T08:30:49.592Z,33.20
2023-05-22T08:33:16.823Z,33.50
2023-05-22T08:35:44.258Z,33.90
2023-05-22T08:38:11.439Z,34.20
2023-05-22T08:40:40.790Z,34.30
2023-05-22T08:43:09.552Z,34.60
2023-05-22T08:45:42.567Z,34.80
2023-05-22T08:48:20.736Z,35.00
2023-05-22T08:50:57.500Z,35.30
2023-05-22T08:53:26.734Z,35.50
2023-05-22T08:55:54.513Z,35.60
2023-05-22T08:58:22.657Z,35.70
2023-05-22T09:00:50.009Z,35.70
2023-05-22T09:03:18.599Z,34.70
2023-05-22T09:05:46.109Z,33.70
2023-05-22T09:08:20.549Z,33.50
2023-05-22T09:10:50.865Z,33.40
2023-05-22T09:13:31.804Z,32.50
2023-05-22T09:16:16.873Z,31.70
2023-05-22T09:18:58.222Z,31.10
2023-05-22T09:21:30.841Z,31.30
2023-05-22T09:24:02.098Z,31.70
2023-05-22T09:26:29.736Z,33.00
2023-05-22T09:28:59.025Z,34.20
2023-05-22T09:31:26.353Z,34.90
2023-05-22T09:33:55.209Z,35.50
2023-05-22T09:36:30.204Z,35.90
2023-05-22T09:38:58.306Z,36.70
2023-05-22T09:41:25.464Z,37.40
2023-05-22T09:43:52.447Z,37.90
2023-05-22T09:46:19.392Z,37.50
2023-05-22T09:48:52.589Z,36.90
2023-05-22T09:51:23.974Z,37.50
2023-05-22T09:53:52.489Z,37.90
2023-05-22T09:56:37.915Z,38.30
2023-05-22T09:59:10.039Z,38.30
2023-05-22T10:01:39.914Z,37.00
2023-05-22T10:04:13.125Z,36.00
2023-05-22T10:06:40.954Z,36.10
2023-05-22T10:09:12.620Z,35.90
2023-05-22T10:11:39.952Z,35.90
2023-05-22T10:14:08.854Z,35.40
2023-05-22T10:16:39.929Z,35.90
2023-05-22T10:19:08.744Z,36.80
2023-05-22T10:21:37.242Z,37.60
2023-05-22T10:24:07.201Z,38.40
2023-05-22T10:26:34.320Z,39.10
2023-05-22T10:29:22.666Z,39.40
2023-05-22T10:32:03.062Z,39.60
2023-05-22T10:34:48.217Z,39.80
2023-05-22T10:37:24.212Z,40.20
2023-05-22T10:40:10.886Z,40.20
2023-05-22T10:42:39.136Z,40.30
2023-05-22T10:45:11.123Z,40.40
2023-05-22T10:47:38.351Z,40.60
2023-05-22T10:50:38.700Z,41.00
2023-05-22T10:55:51.076Z,41.50
2023-05-22T10:58:19.128Z,41.50
2023-05-22T11:14:32.708Z,41.60
2023-05-22T11:17:02.512Z,41.70
2023-05-22T11:27:47.668Z,41.80
2023-05-22T11:30:15.977Z,42.00
2023-05-22T11:35:30.388Z,42.20
2023-05-22T11:43:43.080Z,42.30
2023-05-22T11:46:11.127Z,42.40
2023-05-22T11:48:46.510Z,42.30
2023-05-22T11:51:13.725Z,42.30
2023-05-22T11:53:42.895Z,42.10
2023-05-22T11:56:09.781Z,42.20
2023-05-22T11:58:36.855Z,41.90
2023-05-22T12:01:05.193Z,40.90
2023-05-22T12:03:32.744Z,39.80
2023-05-22T12:06:01.795Z,39.10
2023-05-22T12:08:28.942Z,38.40
2023-05-22T12:10:57.228Z,37.70
2023-05-22T12:13:26.373Z,37.00
2023-05-22T12:15:56.147Z,36.30
2023-05-22T12:18:26.056Z,35.50
2023-05-22T12:20:55.601Z,34.90
2023-05-22T12:23:26.542Z,34.10
2023-05-22T12:26:18.274Z,33.60
2023-05-22T12:28:45.204Z,33.20
2023-05-22T12:31:19.821Z,33.10
2023-05-22T12:33:46.603Z,33.40
2023-05-22T12:36:13.983Z,33.60
2023-05-22T12:38:41.519Z,33.70
2023-05-22T12:41:08.603Z,33.40
2023-05-22T12:43:35.992Z,32.90
2023-05-22T12:46:03.168Z,32.50
2023-05-22T12:48:30.125Z,32.20
2023-05-22T12:50:57.053Z,32.00
2023-05-22T12:53:24.294Z,31.70
2023-05-22T12:55:51.085Z,31.60
2023-05-22T12:58:17.974Z,31.40
2023-05-22T13:00:47.081Z,31.40
2023-05-22T13:03:14.096Z,31.80
2023-05-22T13:05:42.212Z,31.70
2023-05-22T13:08:09.547Z,31.40
2023-05-22T13:10:36.591Z,31.10
2023-05-22T13:13:03.957Z,31.60
2023-05-22T13:15:32.584Z,32.40
2023-05-22T13:17:59.753Z,33.10
2023-05-22T13:20:26.705Z,33.40
2023-05-22T13:22:53.790Z,33.90
2023-05-22T13:25:20.794Z,34.20
2023-05-22T13:27:47.679Z,34.50
2023-05-22T13:30:15.028Z,34.70
2023-05-22T13:32:41.964Z,34.40
2023-05-22T13:35:11.409Z,34.20
2023-05-22T13:37:39.632Z,34.40
2023-05-22T13:40:07.251Z,34.30
2023-05-22T13:42:34.177Z,34.20
2023-05-22T13:45:04.858Z,34.30
2023-05-22T13:47:31.802Z,34.30
2023-05-22T13:49:58.675Z,34.10
2023-05-22T13:52:25.734Z,33.80
2023-05-22T13:54:55.320Z,33.60
2023-05-22T13:57:22.371Z,33.40
2023-05-22T13:59:51.813Z,33.10
2023-05-22T14:02:20.726Z,32.60
2023-05-22T14:04:52.820Z,32.20
2023-05-22T14:07:20.008Z,31.80
2023-05-22T14:09:50.087Z,31.30
2023-05-22T14:12:17.051Z,31.00
2023-05-22T14:14:45.968Z,30.80
2023-05-22T14:19:59.827Z,30.40
2023-05-22T14:22:30.596Z,30.20
2023-05-22T14:24:58.251Z,29.90
2023-05-22T14:27:25.181Z,29.60
2023-05-22T14:29:52.789Z,29.30
2023-05-22T14:32:19.785Z,29.30
2023-05-22T14:34:46.756Z,29.30
2023-05-22T14:39:52.341Z,29.10
2023-05-22T14:42:19.389Z,28.90
2023-05-22T14:53:03.385Z,28.30
2023-05-22T14:55:31.584Z,28.20
2023-05-22T14:57:58.531Z,28.00
2023-05-22T15:00:25.485Z,28.00
2023-05-22T15:02:52.557Z,27.90
2023-05-22T15:05:19.609Z,27.80
2023-05-22T15:07:48.377Z,27.60
2023-05-22T15:10:16.861Z,27.40
2023-05-22T15:12:43.695Z,27.30
2023-05-22T15:15:15.592Z,27.30
2023-05-22T15:17:43.130Z,27.30
2023-05-22T15:20:11.020Z,27.20
2023-05-22T15:22:37.952Z,27.10
2023-05-22T15:25:09.724Z,27.00
2023-05-22T15:27:38.346Z,26.80
2023-05-22T15:32:56.304Z,26.50
2023-05-22T15:35:23.508Z,26.50
2023-05-22T15:37:50.460Z,26.40
2023-05-22T15:40:22.439Z,26.30
2023-05-22T15:42:52.416Z,26.30
2023-05-22T15:45:19.384Z,26.30
2023-05-22T15:47:47.102Z,26.20
2023-05-22T15:50:15.131Z,26.20
2023-05-22T15:52:42.105Z,26.30
2023-05-22T15:55:09.916Z,26.20
2023-05-22T15:57:37.506Z,26.10
2023-05-22T16:00:06.734Z,26.10
2023-05-22T16:02:33.931Z,26.10
2023-05-22T16:05:02.700Z,26.00
2023-05-22T16:10:06.310Z,25.90
2023-05-22T16:12:33.175Z,25.80
2023-05-22T16:15:01.017Z,25.70
2023-05-22T16:17:29.514Z,25.60
2023-05-22T16:19:56.392Z,25.50
2023-05-22T16:22:24.732Z,25.50
2023-05-22T16:24:58.071Z,25.40
2023-05-22T16:27:24.972Z,25.40
2023-05-22T16:29:51.822Z,25.30
2023-05-22T16:32:18.682Z,25.20
2023-05-22T16:34:47.068Z,25.20
2023-05-22T16:37:14.015Z,25.10
2023-05-22T16:39:41.416Z,25.00
2023-05-22T16:42:08.406Z,25.00
2023-05-22T16:44:35.503Z,24.90
2023-05-22T16:47:02.479Z,24.70
2023-05-22T16:49:29.730Z,24.60
2023-05-22T16:51:58.886Z,24.40
2023-05-22T16:57:04.296Z,24.20
2023-05-22T16:59:31.218Z,24.20
2023-05-22T17:01:58.214Z,24.10
2023-05-22T17:04:25.013Z,24.00
2023-05-22T17:06:53.751Z,23.90
2023-05-22T17:09:21.963Z,23.90
2023-05-22T17:11:50.137Z,23.80
2023-05-22T17:14:16.999Z,23.70
2023-05-22T17:16:43.861Z,23.60
2023-05-22T17:19:11.149Z,23.50
2023-05-22T17:21:38.008Z,23.50
2023-05-22T17:24:05.608Z,23.40
2023-05-22T17:26:34.354Z,23.30
2023-05-22T17:29:03.257Z,23.20
2023-05-22T17:31:31.619Z,23.10
2023-05-22T17:33:58.612Z,23.10
2023-05-22T17:36:25.593Z,23.10
2023-05-22T17:38:52.935Z,23.00
2023-05-22T17:41:20.442Z,22.90
2023-05-22T17:43:48.136Z,22.80
2023-05-22T17:46:15.651Z,22.80
2023-05-22T17:51:31.375Z,22.60
2023-05-22T17:54:00.196Z,22.60
2023-05-22T18:04:33.161Z,22.20
2023-05-22T18:07:00.597Z,22.20
2023-05-22T18:09:38.290Z,22.10
2023-05-22T18:12:10.986Z,22.10
2023-05-22T18:14:43.506Z,22.00
2023-05-22T18:17:18.692Z,21.90
2023-05-22T18:19:46.481Z,21.90
2023-05-22T18:22:29.811Z,21.80
2023-05-22T18:24:58.538Z,21.80
2023-05-22T18:35:41.551Z,21.40
2023-05-22T18:38:08.478Z,21.30
2023-05-22T18:40:37.738Z,21.30
2023-05-22T18:43:06.424Z,21.20
2023-05-22T18:45:33.714Z,21.10
2023-05-22T18:48:03.145Z,21.10
2023-05-22T18:53:23.178Z,20.90
2023-05-22T18:55:52.820Z,20.90
2023-05-22T18:58:21.235Z,20.80
2023-05-22T19:00:49.582Z,20.80
2023-05-22T19:03:29.043Z,20.60
2023-05-22T19:05:57.055Z,20.60
2023-05-22T19:08:29.653Z,20.50
2023-05-22T19:10:59.947Z,20.50
2023-05-22T19:13:27.968Z,20.40
2023-05-22T19:16:10.615Z,20.30
2023-05-22T19:39:06.398Z,19.70
2023-05-22T19:41:33.450Z,19.60
2023-05-22T19:44:00.647Z,19.60
2023-05-22T19:51:54.152Z,19.40
2023-05-22T19:54:22.286Z,19.40
2023-05-22T19:56:49.210Z,19.30
2023-05-22T19:59:16.591Z,19.30
2023-05-22T20:01:43.724Z,19.20
2023-05-22T20:04:14.271Z,19.20
2023-05-22T20:06:42.547Z,19.10
2023-05-22T20:09:10.172Z,19.00
2023-05-22T20:11:37.125Z,18.90
2023-05-22T20:14:04.339Z,18.90
2023-05-22T20:16:33.263Z,18.90
2023-05-22T20:19:00.304Z,18.90
2023-05-22T20:21:27.157Z,18.90
2023-05-22T20:23:55.555Z,18.90
2023-05-22T20:26:24.057Z,19.00
2023-05-22T20:28:51.393Z,19.10
2023-05-22T20:31:18.362Z,19.00
2023-05-22T20:33:45.779Z,18.90
2023-05-22T20:36:15.046Z,18.90
2023-05-22T20:38:42.750Z,18.90
2023-05-22T20:41:13.010Z,18.90
2023-05-22T20:43:43.682Z,18.90
2023-05-22T20:46:10.871Z,18.90
2023-05-22T20:48:38.813Z,18.80
2023-05-22T20:51:08.605Z,18.70
2023-05-22T20:53:36.006Z,18.60
2023-05-22T20:56:03.045Z,18.40
2023-05-22T20:58:30.038Z,18.20
2023-05-22T21:00:57.763Z,18.10
2023-05-22T21:03:25.994Z,18.00
2023-05-22T21:05:53.815Z,17.90
2023-05-22T21:08:21.575Z,17.80
2023-05-22T21:10:48.611Z,17.70
2023-05-22T21:13:15.649Z,17.60
2023-05-22T21:15:42.604Z,17.50
2023-05-22T21:18:10.178Z,17.50
2023-05-22T21:20:37.760Z,17.40
2023-05-22T21:23:05.036Z,17.30
2023-05-22T21:25:39.468Z,17.20
2023-05-22T21:28:07.784Z,17.20
2023-05-22T21:30:34.890Z,17.10
2023-05-22T21:33:01.995Z,17.10
2023-05-22T21:35:28.947Z,17.20
2023-05-22T21:37:56.075Z,17.20
2023-05-22T21:40:23.514Z,17.10
2023-05-22T21:42:50.814Z,17.00
2023-05-22T21:45:18.756Z,17.00
2023-05-22T21:47:47.165Z,16.90
2023-05-22T21:50:14.372Z,16.90
2023-05-22T21:52:41.740Z,16.80
2023-05-22T21:55:08.775Z,16.80
2023-05-22T21:57:36.088Z,16.70
2023-05-22T22:00:03.086Z,16.70
2023-05-22T22:02:30.023Z,16.70
2023-05-22T22:04:58.578Z,16.70
2023-05-22T22:07:25.925Z,16.80
2023-05-22T22:09:52.896Z,16.80
2023-05-22T22:12:21.951Z,16.80
2023-05-22T22:14:48.895Z,16.80
2023-05-22T22:17:18.119Z,16.70
2023-05-22T22:19:45.078Z,16.60
2023-05-22T22:22:12.609Z,16.60
2023-05-22T22:24:39.742Z,16.70
2023-05-22T22:27:09.722Z,16.70
2023-05-22T22:29:37.419Z,16.70
2023-05-22T22:32:04.482Z,16.70
2023-05-22T22:34:31.744Z,16.70
2023-05-22T22:36:58.573Z,16.70
2023-05-22T22:39:26.528Z,16.70
2023-05-22T22:41:53.842Z,16.70
2023-05-22T22:44:20.808Z,16.70
2023-05-22T22:46:48.195Z,16.60
2023-05-22T22:49:15.843Z,16.60
2023-05-22T22:51:42.981Z,16.60
2023-05-22T22:54:11.981Z,16.50
2023-05-22T22:56:38.984Z,16.50
2023-05-22T22:59:06.140Z,16.50
2023-05-22T23:01:33.094Z,16.50
2023-05-22T23:04:00.046Z,16.50
2023-05-22T23:06:29.710Z,16.50
2023-05-22T23:08:58.769Z,16.50
2023-05-22T23:11:37.695Z,16.40
2023-05-22T23:14:08.874Z,16.50
2023-05-22T23:16:36.823Z,16.50
2023-05-22T23:19:04.978Z,16.40
2023-05-22T23:21:32.545Z,16.40
2023-05-22T23:24:00.446Z,16.30
2023-05-22T23:26:31.285Z,16.30
2023-05-22T23:29:02.699Z,16.30
2023-05-22T23:31:30.756Z,16.30
2023-05-22T23:33:58.224Z,16.30
2023-05-22T23:36:28.241Z,16.30
2023-05-22T23:38:55.361Z,16.20
2023-05-22T23:41:25.230Z,16.10
2023-05-22T23:43:52.449Z,16.10
2023-05-22T23:46:21.307Z,16.10
2023-05-22T23:48:48.297Z,16.10
2023-05-22T23:51:15.556Z,16.00
2023-05-22T23:53:42.574Z,16.00
2023-05-22T23:56:13.282Z,16.00
2023-05-22T23:58:40.236Z,15.90
